createdAt,value
2019-03-10T00:00:06.430Z,0
2019-03-10T00:01:07.183Z,0
2019-03-10T00:02:10.719Z,0
2019-03-10T00:03:09.023Z,0
2019-03-10T00:04:09.218Z,0
2019-03-10T00:05:08.706Z,0
2019-03-10T00:06:08.895Z,0
2019-03-10T00:07:10.202Z,0
2019-03-10T00:08:10.952Z,0
2019-03-10T00:09:12.257Z,0
2019-03-10T00:10:13.010Z,0
2019-03-10T00:11:14.321Z,0
2019-03-10T00:12:15.072Z,0
2019-03-10T00:13:15.821Z,0
2019-03-10T00:14:16.782Z,0
2019-03-10T00:15:17.258Z,0
2019-03-10T00:16:17.748Z,0
2019-03-10T00:17:18.502Z,0
2019-03-10T00:18:18.806Z,0
2019-03-10T00:19:19.299Z,0
2019-03-10T00:20:20.096Z,0
2019-03-10T00:21:20.580Z,0
2019-03-10T00:22:21.611Z,0
2019-03-10T00:23:22.083Z,0
2019-03-10T00:24:23.068Z,0
2019-03-10T00:25:23.823Z,0
2019-03-10T00:26:24.336Z,0
2019-03-10T00:27:24.817Z,0
2019-03-10T00:28:25.851Z,0
2019-03-10T00:29:26.601Z,0
2019-03-10T00:30:27.378Z,0
2019-03-10T00:31:27.857Z,0
2019-03-10T00:32:28.332Z,0
2019-03-10T00:33:28.817Z,0
2019-03-10T00:34:30.019Z,0
2019-03-10T00:35:30.784Z,0
2019-03-10T00:36:31.262Z,0
2019-03-10T00:37:32.291Z,0
2019-03-10T00:38:33.042Z,0
2019-03-10T00:39:33.519Z,0
2019-03-10T00:40:33.781Z,0
2019-03-10T00:41:34.246Z,0
2019-03-10T00:42:34.714Z,0
2019-03-10T00:43:35.186Z,0
2019-03-10T00:44:35.439Z,0
2019-03-10T00:45:36.196Z,0
2019-03-10T00:46:36.672Z,0
2019-03-10T00:47:36.879Z,0
2019-03-10T00:48:37.074Z,0
2019-03-10T00:49:37.878Z,0
2019-03-10T00:50:38.642Z,0
2019-03-10T00:51:38.670Z,0
2019-03-10T00:52:39.141Z,0
2019-03-10T00:53:39.614Z,0
2019-03-10T00:54:40.103Z,0
2019-03-10T00:55:40.129Z,0
2019-03-10T00:56:40.878Z,0
2019-03-10T00:57:42.750Z,0
2019-03-10T00:58:42.224Z,0
2019-03-10T00:59:42.975Z,0
2019-03-10T01:00:43.450Z,0
2019-03-10T01:01:43.928Z,0
2019-03-10T01:02:44.689Z,0
2019-03-10T01:03:45.438Z,0
2019-03-10T01:04:46.374Z,0
2019-03-10T01:05:47.152Z,0
2019-03-10T01:06:47.906Z,0
2019-03-10T01:07:49.208Z,0
2019-03-10T01:08:49.955Z,0
2019-03-10T01:09:51.266Z,0
2019-03-10T01:10:51.753Z,0
2019-03-10T01:11:52.517Z,0
2019-03-10T01:12:53.553Z,0
2019-03-10T01:13:54.584Z,0
2019-03-10T01:14:55.522Z,0
2019-03-10T01:15:56.269Z,0
2019-03-10T01:16:56.744Z,0
2019-03-10T01:17:57.222Z,0
2019-03-10T01:18:58.262Z,0
2019-03-10T01:19:58.737Z,0
2019-03-10T01:20:58.933Z,0
2019-03-10T01:22:00.236Z,0
2019-03-10T01:23:00.436Z,0
2019-03-10T01:24:01.198Z,0
2019-03-10T01:25:01.953Z,0
2019-03-10T01:26:02.473Z,0
2019-03-10T01:27:02.951Z,0
2019-03-10T01:28:03.461Z,0
2019-03-10T01:29:04.840Z,0
2019-03-10T01:30:05.905Z,0
2019-03-10T01:31:06.661Z,0
2019-03-10T01:32:06.858Z,0
2019-03-10T01:33:07.615Z,0
2019-03-10T01:34:08.636Z,0
2019-03-10T01:35:09.181Z,0
2019-03-10T01:36:09.653Z,0
2019-03-10T01:37:10.413Z,0
2019-03-10T01:38:10.886Z,0
2019-03-10T01:39:11.356Z,0
2019-03-10T01:40:11.832Z,0
2019-03-10T01:41:12.102Z,0
2019-03-10T01:42:12.575Z,0
2019-03-10T01:43:13.375Z,0
2019-03-10T01:44:14.124Z,0
2019-03-10T01:45:13.756Z,0
2019-03-10T01:46:14.793Z,0
2019-03-10T01:47:15.280Z,0
2019-03-10T01:48:16.035Z,0
2019-03-10T01:49:16.803Z,0
2019-03-10T01:50:17.018Z,0
2019-03-10T01:51:18.365Z,0
2019-03-10T01:52:19.120Z,0
2019-03-10T01:53:29.383Z,0
2019-03-10T01:54:30.318Z,0
2019-03-10T01:55:30.529Z,0
2019-03-10T01:56:31.338Z,0
2019-03-10T01:57:31.537Z,0
2019-03-10T01:58:32.564Z,0
2019-03-10T01:59:33.321Z,0
2019-03-10T02:00:33.799Z,0
2019-03-10T02:01:34.881Z,0
2019-03-10T02:02:35.368Z,0
2019-03-10T02:03:35.844Z,0
2019-03-10T02:04:36.530Z,0
2019-03-10T02:05:36.729Z,0
2019-03-10T02:06:37.212Z,0
2019-03-10T02:07:38.267Z,0
2019-03-10T02:08:38.742Z,0
2019-03-10T02:09:39.493Z,0
2019-03-10T02:10:40.292Z,0
2019-03-10T02:11:40.493Z,0
2019-03-10T02:12:41.251Z,0
2019-03-10T02:13:42.288Z,0
2019-03-10T02:14:42.926Z,0
2019-03-10T02:15:43.124Z,0
2019-03-10T02:16:44.156Z,0
2019-03-10T02:17:44.914Z,0
2019-03-10T02:18:45.948Z,0
2019-03-10T02:19:47.261Z,0
2019-03-10T02:20:47.912Z,0
2019-03-10T02:21:48.388Z,0
2019-03-10T02:22:49.471Z,0
2019-03-10T02:23:50.278Z,0
2019-03-10T02:24:50.956Z,0
2019-03-10T02:25:51.992Z,0
2019-03-10T02:26:52.066Z,0
2019-03-10T02:27:52.548Z,0
2019-03-10T02:28:53.313Z,0
2019-03-10T02:29:54.070Z,0
2019-03-10T02:30:54.826Z,0
2019-03-10T02:31:56.723Z,0
2019-03-10T02:32:57.320Z,0
2019-03-10T02:33:57.373Z,0
2019-03-10T02:34:58.286Z,0
2019-03-10T02:36:00.203Z,0
2019-03-10T02:37:00.250Z,0
2019-03-10T02:38:01.899Z,0
2019-03-10T02:39:02.532Z,0
2019-03-10T02:40:02.824Z,0
2019-03-10T02:41:03.942Z,0
2019-03-10T02:42:04.838Z,0
2019-03-10T02:43:05.487Z,0
2019-03-10T02:44:05.959Z,0
2019-03-10T02:45:06.954Z,0
2019-03-10T02:46:06.734Z,0
2019-03-10T02:47:07.107Z,0
2019-03-10T02:48:08.742Z,0
2019-03-10T02:49:09.093Z,0
2019-03-10T02:50:10.144Z,0
2019-03-10T02:51:10.917Z,0
2019-03-10T02:52:11.716Z,0
2019-03-10T02:53:13.332Z,0
2019-03-10T02:54:13.984Z,0
2019-03-10T02:55:15.077Z,0
2019-03-10T02:56:15.461Z,0
2019-03-10T02:57:16.337Z,0
2019-03-10T02:58:17.210Z,0
2019-03-10T02:59:17.281Z,0
2019-03-10T03:00:18.646Z,0
2019-03-10T03:01:18.770Z,0
2019-03-10T03:02:19.546Z,0
2019-03-10T03:03:21.193Z,0
2019-03-10T03:04:22.296Z,0
2019-03-10T03:05:22.931Z,0
2019-03-10T03:06:23.973Z,0
2019-03-10T03:07:25.281Z,0
2019-03-10T03:08:25.342Z,0
2019-03-10T03:09:26.895Z,0
2019-03-10T03:10:27.495Z,0
2019-03-10T03:11:27.867Z,0
2019-03-10T03:12:28.186Z,0
2019-03-10T03:13:28.890Z,0
2019-03-10T03:14:30.062Z,0
2019-03-10T03:15:30.720Z,0
2019-03-10T03:16:31.614Z,0
2019-03-10T03:17:32.243Z,0
2019-03-10T03:18:32.365Z,0
2019-03-10T03:19:33.230Z,0
2019-03-10T03:20:34.544Z,0
2019-03-10T03:21:47.467Z,0
2019-03-10T03:22:47.222Z,0
2019-03-10T03:23:48.149Z,0
2019-03-10T03:24:48.024Z,0
2019-03-10T03:25:49.070Z,0
2019-03-10T03:26:49.551Z,0
2019-03-10T03:27:51.132Z,0
2019-03-10T03:28:51.171Z,0
2019-03-10T03:29:51.494Z,0
2019-03-10T03:30:53.956Z,0
2019-03-10T03:31:54.104Z,0
2019-03-10T03:32:55.182Z,0
2019-03-10T03:33:55.854Z,0
2019-03-10T03:34:56.397Z,0
2019-03-10T03:35:57.337Z,0
2019-03-10T03:36:57.381Z,0
2019-03-10T03:37:57.687Z,0
2019-03-10T03:38:59.009Z,0
2019-03-10T03:39:59.875Z,0
2019-03-10T03:41:00.615Z,0
2019-03-10T03:42:00.154Z,0
2019-03-10T03:43:01.986Z,0
2019-03-10T03:44:02.066Z,0
2019-03-10T03:45:03.252Z,0
2019-03-10T03:46:03.953Z,0
2019-03-10T03:47:04.605Z,0
2019-03-10T03:48:04.662Z,0
2019-03-10T03:49:05.994Z,0
2019-03-10T03:50:07.055Z,0
2019-03-10T03:51:07.960Z,0
2019-03-10T03:52:08.571Z,0
2019-03-10T03:53:08.214Z,0
2019-03-10T03:54:10.078Z,0
2019-03-10T03:55:10.396Z,0
2019-03-10T03:56:09.927Z,0
2019-03-10T03:57:11.244Z,0
2019-03-10T03:58:11.866Z,0
2019-03-10T03:59:12.941Z,0
2019-03-10T04:00:14.582Z,0
2019-03-10T04:01:15.786Z,0
2019-03-10T04:02:16.456Z,0
2019-03-10T04:03:16.133Z,0
2019-03-10T04:04:17.558Z,0
2019-03-10T04:05:19.160Z,0
2019-03-10T04:06:20.034Z,0
2019-03-10T04:07:20.354Z,0
2019-03-10T04:08:21.698Z,0
2019-03-10T04:09:22.285Z,0
2019-03-10T04:10:22.877Z,0
2019-03-10T04:11:22.926Z,0
2019-03-10T04:12:24.838Z,0
2019-03-10T04:13:25.262Z,0
2019-03-10T04:14:25.679Z,0
2019-03-10T04:15:27.385Z,0
2019-03-10T04:16:27.709Z,0
2019-03-10T04:17:28.801Z,0
2019-03-10T04:18:29.200Z,0
2019-03-10T04:19:30.320Z,0
2019-03-10T04:20:31.643Z,0
2019-03-10T04:21:32.136Z,0
2019-03-10T04:22:33.461Z,0
2019-03-10T04:23:35.107Z,0
2019-03-10T04:24:35.139Z,0
2019-03-10T04:25:35.454Z,0
2019-03-10T04:26:36.631Z,0
2019-03-10T04:27:37.226Z,0
2019-03-10T04:28:37.278Z,0
2019-03-10T04:29:37.597Z,0
2019-03-10T04:30:38.743Z,0
2019-03-10T04:31:40.051Z,0
2019-03-10T04:32:40.970Z,0
2019-03-10T04:33:40.920Z,0
2019-03-10T04:34:41.771Z,0
2019-03-10T04:35:42.580Z,0
2019-03-10T04:36:43.334Z,0
2019-03-10T04:37:43.818Z,0
2019-03-10T04:38:44.852Z,0
2019-03-10T04:39:45.881Z,0
2019-03-10T04:40:46.353Z,0
2019-03-10T04:41:46.840Z,0
2019-03-10T04:42:47.317Z,0
2019-03-10T04:43:48.796Z,0
2019-03-10T04:44:49.292Z,0
2019-03-10T04:45:49.762Z,0
2019-03-10T04:46:50.517Z,0
2019-03-10T04:47:51.010Z,0
2019-03-10T04:48:52.046Z,0
2019-03-10T04:49:51.526Z,0
2019-03-10T04:50:52.841Z,0
2019-03-10T04:51:53.045Z,0
2019-03-10T04:52:53.556Z,0
2019-03-10T04:53:54.360Z,0
2019-03-10T04:54:54.553Z,0
2019-03-10T04:55:55.579Z,0
2019-03-10T04:56:56.048Z,0
2019-03-10T04:57:56.801Z,0
2019-03-10T04:58:57.016Z,0
2019-03-10T04:59:57.773Z,0
2019-03-10T05:00:58.390Z,0
2019-03-10T05:01:57.863Z,0
2019-03-10T05:02:58.633Z,0
2019-03-10T05:03:59.901Z,0
2019-03-10T05:05:00.567Z,0
2019-03-10T05:06:01.040Z,0
2019-03-10T05:07:01.242Z,0
2019-03-10T05:08:02.316Z,0
2019-03-10T05:09:03.073Z,0
2019-03-10T05:10:03.884Z,0
2019-03-10T05:11:04.910Z,0
2019-03-10T05:12:06.499Z,0
2019-03-10T05:13:05.695Z,0
2019-03-10T05:14:06.844Z,0
2019-03-10T05:15:06.881Z,0
2019-03-10T05:16:08.189Z,0
2019-03-10T05:17:08.694Z,0
2019-03-10T05:18:09.445Z,0
2019-03-10T05:19:10.469Z,0
2019-03-10T05:20:11.772Z,0
2019-03-10T05:21:11.248Z,0
2019-03-10T05:22:11.723Z,0
2019-03-10T05:23:12.207Z,0
2019-03-10T05:24:14.016Z,0
2019-03-10T05:25:14.326Z,0
2019-03-10T05:26:14.836Z,0
2019-03-10T05:27:15.867Z,0
2019-03-10T05:28:16.623Z,0
2019-03-10T05:29:16.856Z,0
2019-03-10T05:30:17.891Z,0
2019-03-10T05:31:18.660Z,0
2019-03-10T05:32:19.134Z,0
2019-03-10T05:33:19.912Z,0
2019-03-10T05:34:20.103Z,0
2019-03-10T05:35:20.314Z,0
2019-03-10T05:36:21.062Z,0
2019-03-10T05:37:21.258Z,0
2019-03-10T05:38:22.008Z,0
2019-03-10T05:39:22.204Z,0
2019-03-10T05:40:23.011Z,0
2019-03-10T05:41:24.039Z,0
2019-03-10T05:42:24.066Z,0
2019-03-10T05:43:25.096Z,0
2019-03-10T05:44:26.132Z,0
2019-03-10T05:45:27.720Z,0
2019-03-10T05:46:28.305Z,0
2019-03-10T05:47:28.341Z,0
2019-03-10T05:48:28.537Z,0
2019-03-10T05:49:29.308Z,0
2019-03-10T05:50:30.625Z,0
2019-03-10T05:51:31.455Z,0
2019-03-10T05:52:31.925Z,0
2019-03-10T05:53:32.403Z,0
2019-03-10T05:54:32.882Z,0
2019-03-10T05:55:33.358Z,0
2019-03-10T05:56:34.395Z,0
2019-03-10T05:57:34.868Z,0
2019-03-10T05:58:38.632Z,0
2019-03-10T05:59:38.740Z,0
2019-03-10T06:00:45.928Z,0
2019-03-10T06:00:49.275Z,0
2019-03-10T06:01:50.834Z,5.63
2019-03-10T06:02:51.869Z,5.63
2019-03-10T06:03:52.188Z,5.63
2019-03-10T06:04:52.656Z,5.63
2019-03-10T06:05:53.129Z,5.63
2019-03-10T06:06:53.883Z,5.63
2019-03-10T06:07:54.082Z,5.63
2019-03-10T06:08:54.276Z,5.63
2019-03-10T06:09:55.587Z,5.63
2019-03-10T06:10:55.780Z,5.63
2019-03-10T06:11:56.419Z,5.63
2019-03-10T06:12:57.179Z,5.63
2019-03-10T06:13:57.650Z,5.63
2019-03-10T06:14:58.690Z,11.25
2019-03-10T06:15:59.734Z,11.25
2019-03-10T06:17:00.213Z,11.25
2019-03-10T06:18:00.719Z,11.25
2019-03-10T06:19:01.784Z,11.25
2019-03-10T06:20:03.098Z,16.88
2019-03-10T06:21:03.171Z,16.88
2019-03-10T06:22:03.158Z,11.25
2019-03-10T06:23:03.921Z,11.25
2019-03-10T06:24:04.960Z,16.88
2019-03-10T06:25:06.145Z,16.88
2019-03-10T06:26:06.974Z,16.88
2019-03-10T06:27:06.035Z,16.88
2019-03-10T06:28:06.790Z,16.88
2019-03-10T06:29:07.836Z,11.25
2019-03-10T06:30:08.314Z,11.25
2019-03-10T06:31:09.081Z,16.88
2019-03-10T06:32:09.592Z,16.88
2019-03-10T06:33:10.106Z,16.88
2019-03-10T06:34:11.696Z,16.88
2019-03-10T06:35:11.167Z,16.88
2019-03-10T06:36:11.917Z,16.88
2019-03-10T06:37:12.684Z,16.88
2019-03-10T06:38:13.159Z,16.88
2019-03-10T06:39:14.750Z,16.88
2019-03-10T06:40:14.504Z,22.5
2019-03-10T06:41:15.540Z,22.5
2019-03-10T06:42:15.751Z,22.5
2019-03-10T06:43:16.277Z,28.13
2019-03-10T06:44:16.765Z,28.13
2019-03-10T06:45:17.806Z,28.13
2019-03-10T06:46:18.023Z,28.13
2019-03-10T06:47:18.773Z,22.5
2019-03-10T06:48:19.316Z,28.13
2019-03-10T06:49:20.542Z,28.13
2019-03-10T06:50:21.030Z,33.75
2019-03-10T06:51:21.785Z,33.75
2019-03-10T06:52:22.312Z,33.75
2019-03-10T06:53:22.539Z,33.75
2019-03-10T06:54:23.015Z,33.75
2019-03-10T06:55:23.503Z,33.75
2019-03-10T06:56:23.975Z,39.38
2019-03-10T06:57:24.731Z,45
2019-03-10T06:58:26.039Z,50.63
2019-03-10T06:59:25.800Z,50.63
2019-03-10T07:00:26.331Z,50.63
2019-03-10T07:01:26.808Z,50.63
2019-03-10T07:02:27.731Z,50.63
2019-03-10T07:03:28.210Z,50.63
2019-03-10T07:04:29.551Z,50.63
2019-03-10T07:05:29.830Z,50.63
2019-03-10T07:06:30.041Z,50.63
2019-03-10T07:07:30.301Z,56.25
2019-03-10T07:08:33.335Z,50.63
2019-03-10T07:09:31.526Z,50.63
2019-03-10T07:10:32.005Z,50.63
2019-03-10T07:11:32.803Z,50.63
2019-03-10T07:12:33.868Z,56.25
2019-03-10T07:13:34.908Z,50.63
2019-03-10T07:14:35.111Z,45
2019-03-10T07:15:35.867Z,45
2019-03-10T07:16:36.910Z,45
2019-03-10T07:17:37.665Z,50.63
2019-03-10T07:18:38.152Z,50.63
2019-03-10T07:19:38.650Z,50.63
2019-03-10T07:20:39.406Z,50.63
2019-03-10T07:21:40.727Z,50.63
2019-03-10T07:22:41.506Z,50.63
2019-03-10T07:23:41.983Z,56.25
2019-03-10T07:24:42.738Z,61.88
2019-03-10T07:25:43.804Z,61.88
2019-03-10T07:26:44.571Z,73.13
2019-03-10T07:27:45.606Z,84.38
2019-03-10T07:28:46.360Z,90
2019-03-10T07:29:46.839Z,95.63
2019-03-10T07:30:47.592Z,95.63
2019-03-10T07:31:48.650Z,84.38
2019-03-10T07:32:49.877Z,78.75
2019-03-10T07:33:50.911Z,78.75
2019-03-10T07:34:50.385Z,78.75
2019-03-10T07:35:51.043Z,73.13
2019-03-10T07:36:51.527Z,78.75
2019-03-10T07:37:52.007Z,78.75
2019-03-10T07:38:53.041Z,73.13
2019-03-10T07:39:52.823Z,67.5
2019-03-10T07:40:54.138Z,67.5
2019-03-10T07:41:54.905Z,61.88
2019-03-10T07:42:55.154Z,67.5
2019-03-10T07:43:56.520Z,78.75
2019-03-10T07:44:56.722Z,84.38
2019-03-10T07:45:58.036Z,90
2019-03-10T07:46:58.513Z,84.38
2019-03-10T07:47:59.273Z,90
2019-03-10T07:49:00.030Z,95.63
2019-03-10T07:50:00.328Z,90
2019-03-10T07:51:01.109Z,95.63
2019-03-10T07:52:02.437Z,95.63
2019-03-10T07:53:02.088Z,101.25
2019-03-10T07:54:03.188Z,95.63
2019-03-10T07:55:03.388Z,84.38
2019-03-10T07:56:04.145Z,90
2019-03-10T07:57:04.930Z,95.63
2019-03-10T07:58:05.969Z,106.88
2019-03-10T07:59:06.812Z,123.75
2019-03-10T08:00:07.572Z,129.38
2019-03-10T08:01:08.332Z,123.75
2019-03-10T08:02:09.102Z,118.13
2019-03-10T08:03:09.753Z,112.5
2019-03-10T08:04:10.525Z,112.5
2019-03-10T08:05:11.312Z,112.5
2019-03-10T08:06:12.491Z,135
2019-03-10T08:07:12.972Z,157.5
2019-03-10T08:08:14.023Z,168.75
2019-03-10T08:09:15.339Z,174.38
2019-03-10T08:10:15.220Z,196.88
2019-03-10T08:11:16.020Z,208.13
2019-03-10T08:12:16.796Z,213.75
2019-03-10T08:13:18.016Z,213.75
2019-03-10T08:14:18.494Z,213.75
2019-03-10T08:15:19.305Z,213.75
2019-03-10T08:16:20.078Z,213.75
2019-03-10T08:17:20.344Z,213.75
2019-03-10T08:18:20.548Z,219.38
2019-03-10T08:19:21.589Z,213.75
2019-03-10T08:20:22.088Z,219.38
2019-03-10T08:21:22.850Z,219.38
2019-03-10T08:22:23.341Z,225
2019-03-10T08:23:24.818Z,225
2019-03-10T08:24:25.020Z,230.63
2019-03-10T08:25:26.084Z,230.63
2019-03-10T08:26:27.138Z,230.63
2019-03-10T08:27:27.488Z,219.38
2019-03-10T08:28:27.690Z,213.75
2019-03-10T08:29:29.012Z,208.13
2019-03-10T08:30:28.498Z,208.13
2019-03-10T08:31:30.422Z,213.75
2019-03-10T08:32:30.531Z,219.38
2019-03-10T08:33:31.092Z,219.38
2019-03-10T08:34:31.298Z,230.63
2019-03-10T08:35:32.891Z,236.25
2019-03-10T08:36:32.659Z,208.13
2019-03-10T08:37:33.141Z,213.75
2019-03-10T08:38:33.892Z,236.25
2019-03-10T08:39:34.387Z,236.25
2019-03-10T08:40:35.152Z,213.75
2019-03-10T08:41:35.920Z,202.5
2019-03-10T08:42:36.128Z,230.63
2019-03-10T08:43:37.349Z,241.88
2019-03-10T08:44:38.110Z,230.63
2019-03-10T08:45:38.587Z,219.38
2019-03-10T08:46:39.064Z,202.5
2019-03-10T08:47:39.828Z,191.25
2019-03-10T08:48:40.317Z,185.63
2019-03-10T08:49:50.889Z,168.75
2019-03-10T08:50:51.413Z,168.75
2019-03-10T08:51:52.173Z,168.75
2019-03-10T08:52:54.299Z,157.5
2019-03-10T08:53:53.698Z,163.13
2019-03-10T08:54:54.562Z,163.13
2019-03-10T08:55:55.051Z,163.13
2019-03-10T08:56:55.532Z,157.5
2019-03-10T08:57:58.715Z,135
2019-03-10T08:58:57.200Z,123.75
2019-03-10T08:59:57.687Z,118.13
2019-03-10T09:00:58.611Z,112.5
2019-03-10T09:01:58.820Z,112.5
2019-03-10T09:02:59.875Z,118.13
2019-03-10T09:04:00.108Z,118.13
2019-03-10T09:05:01.335Z,118.13
2019-03-10T09:06:00.972Z,118.13
2019-03-10T09:07:01.458Z,112.5
2019-03-10T09:08:02.549Z,118.13
2019-03-10T09:09:03.585Z,118.13
2019-03-10T09:10:04.386Z,112.5
2019-03-10T09:11:05.155Z,112.5
2019-03-10T09:12:05.937Z,106.88
2019-03-10T09:13:06.418Z,106.88
2019-03-10T09:14:06.908Z,118.13
2019-03-10T09:15:08.518Z,118.13
2019-03-10T09:16:08.860Z,129.38
2019-03-10T09:17:09.622Z,135
2019-03-10T09:18:09.381Z,135
2019-03-10T09:19:10.704Z,135
2019-03-10T09:20:11.799Z,135
2019-03-10T09:21:11.228Z,140.63
2019-03-10T09:22:12.304Z,146.25
2019-03-10T09:23:13.063Z,146.25
2019-03-10T09:24:14.101Z,146.25
2019-03-10T09:25:14.649Z,135
2019-03-10T09:26:15.430Z,146.25
2019-03-10T09:27:15.921Z,146.25
2019-03-10T09:28:16.411Z,151.88
2019-03-10T09:29:16.898Z,140.63
2019-03-10T09:30:17.657Z,135
2019-03-10T09:31:18.306Z,135
2019-03-10T09:32:19.341Z,135
2019-03-10T09:33:19.902Z,129.38
2019-03-10T09:34:20.939Z,129.38
2019-03-10T09:35:21.982Z,135
2019-03-10T09:36:22.464Z,140.63
2019-03-10T09:37:22.704Z,135
2019-03-10T09:38:23.470Z,129.38
2019-03-10T09:39:24.515Z,129.38
2019-03-10T09:40:25.315Z,129.38
2019-03-10T09:41:26.359Z,123.75
2019-03-10T09:42:27.418Z,123.75
2019-03-10T09:43:27.739Z,135
2019-03-10T09:44:27.969Z,135
2019-03-10T09:45:30.151Z,129.38
2019-03-10T09:46:30.201Z,129.38
2019-03-10T09:47:31.511Z,123.75
2019-03-10T09:48:32.304Z,129.38
2019-03-10T09:49:32.830Z,129.38
2019-03-10T09:50:33.371Z,123.75
2019-03-10T09:51:35.135Z,118.13
2019-03-10T09:52:47.162Z,123.75
2019-03-10T09:53:46.676Z,129.38
2019-03-10T09:54:46.275Z,129.38
2019-03-10T09:55:47.031Z,129.38
2019-03-10T09:56:48.074Z,123.75
2019-03-10T09:57:49.120Z,123.75
2019-03-10T09:58:49.899Z,118.13
2019-03-10T09:59:50.102Z,112.5
2019-03-10T10:00:51.703Z,118.13
2019-03-10T10:01:53.685Z,123.75
2019-03-10T10:02:55.002Z,123.75
2019-03-10T10:03:55.848Z,129.38
2019-03-10T10:04:56.898Z,135
2019-03-10T10:05:57.399Z,129.38
2019-03-10T10:06:58.163Z,123.75
2019-03-10T10:07:58.932Z,118.13
2019-03-10T10:09:00.002Z,129.38
2019-03-10T10:10:01.100Z,140.63
2019-03-10T10:11:01.891Z,129.38
2019-03-10T10:12:15.389Z,129.38
2019-03-10T10:13:13.604Z,129.38
2019-03-10T10:14:14.087Z,135
2019-03-10T10:15:14.880Z,129.38
2019-03-10T10:16:15.631Z,123.75
2019-03-10T10:17:16.118Z,118.13
2019-03-10T10:18:16.890Z,118.13
2019-03-10T10:19:17.716Z,112.5
2019-03-10T10:20:19.085Z,118.13
2019-03-10T10:21:19.844Z,118.13
2019-03-10T10:22:20.327Z,112.5
2019-03-10T10:23:20.967Z,112.5
2019-03-10T10:24:21.448Z,106.88
2019-03-10T10:25:21.932Z,106.88
2019-03-10T10:26:34.661Z,112.5
2019-03-10T10:27:37.102Z,106.88
2019-03-10T10:28:35.591Z,112.5
2019-03-10T10:29:36.623Z,112.5
2019-03-10T10:30:37.396Z,106.88
2019-03-10T10:31:37.881Z,112.5
2019-03-10T10:32:38.932Z,112.5
2019-03-10T10:33:39.412Z,112.5
2019-03-10T10:34:42.818Z,112.5
2019-03-10T10:35:40.788Z,118.13
2019-03-10T10:36:40.994Z,129.38
2019-03-10T10:37:41.917Z,129.38
2019-03-10T10:38:42.727Z,129.38
2019-03-10T10:39:55.663Z,140.63
2019-03-10T10:40:54.361Z,135
2019-03-10T10:41:55.127Z,123.75
2019-03-10T10:42:56.159Z,135
2019-03-10T10:43:56.922Z,151.88
2019-03-10T10:44:57.410Z,151.88
2019-03-10T10:45:57.613Z,140.63
2019-03-10T10:46:58.113Z,151.88
2019-03-10T10:47:58.597Z,163.13
2019-03-10T10:49:15.347Z,168.75
2019-03-10T10:49:22.139Z,168.75
2019-03-10T10:50:21.273Z,174.38
2019-03-10T10:51:20.800Z,174.38
2019-03-10T10:52:22.190Z,174.38
2019-03-10T10:53:24.358Z,174.38
2019-03-10T10:54:24.924Z,174.38
2019-03-10T10:55:25.806Z,168.75
2019-03-10T10:56:31.939Z,151.88
2019-03-10T10:56:36.689Z,151.88
2019-03-10T10:57:37.257Z,146.25
2019-03-10T10:58:38.108Z,146.25
2019-03-10T10:59:39.159Z,140.63
2019-03-10T11:00:40.203Z,140.63
2019-03-10T11:01:40.688Z,146.25
2019-03-10T11:02:41.772Z,163.13
2019-03-10T11:03:42.265Z,174.38
2019-03-10T11:04:43.304Z,180
2019-03-10T11:05:44.065Z,180
2019-03-10T11:06:45.158Z,174.38
2019-03-10T11:07:45.531Z,146.25
2019-03-10T11:08:46.016Z,123.75
2019-03-10T11:09:46.778Z,112.5
2019-03-10T11:10:47.850Z,112.5
2019-03-10T11:11:48.335Z,135
2019-03-10T11:12:48.540Z,163.13
2019-03-10T11:13:49.633Z,174.38
2019-03-10T11:14:50.672Z,180
2019-03-10T11:15:53.505Z,196.88
2019-03-10T11:16:52.474Z,230.63
2019-03-10T11:17:52.398Z,292.5
2019-03-10T11:18:53.159Z,450
2019-03-10T11:19:53.918Z,472.5
2019-03-10T11:20:56.928Z,720
2019-03-10T11:21:55.625Z,680.63
2019-03-10T11:22:59.691Z,511.88
2019-03-10T11:23:58.331Z,551.25
2019-03-10T11:24:59.376Z,410.63
2019-03-10T11:26:00.690Z,337.5
2019-03-10T11:27:00.178Z,326.25
2019-03-10T11:28:01.692Z,331.88
2019-03-10T11:29:06.555Z,365.63
2019-03-10T11:30:06.038Z,438.75
2019-03-10T11:31:06.803Z,427.5
2019-03-10T11:32:07.852Z,489.38
2019-03-10T11:33:08.949Z,450
2019-03-10T11:34:08.987Z,506.25
2019-03-10T11:35:10.113Z,624.38
2019-03-10T11:36:10.597Z,714.38
2019-03-10T11:37:11.387Z,843.75
2019-03-10T11:38:12.309Z,843.75
2019-03-10T11:39:12.589Z,1265.63
2019-03-10T11:40:13.353Z,1035
2019-03-10T11:41:13.563Z,1119.38
2019-03-10T11:42:14.627Z,888.75
2019-03-10T11:43:15.111Z,1203.75
2019-03-10T11:44:15.600Z,1186.88
2019-03-10T11:45:16.645Z,1023.75
2019-03-10T11:46:16.858Z,1141.88
2019-03-10T11:47:17.621Z,1198.13
2019-03-10T11:48:18.555Z,1158.75
2019-03-10T11:49:19.348Z,1147.5
2019-03-10T11:50:20.678Z,731.25
2019-03-10T11:51:20.509Z,1305
2019-03-10T11:52:20.708Z,770.63
2019-03-10T11:53:22.467Z,1451.25
2019-03-10T11:54:22.957Z,1327.5
2019-03-10T11:55:25.385Z,1271.25
2019-03-10T11:56:24.413Z,1305
2019-03-10T11:57:24.931Z,1271.25
2019-03-10T11:58:25.863Z,1338.75
2019-03-10T11:59:26.360Z,1451.25
2019-03-10T12:00:26.893Z,1586.25
2019-03-10T12:01:27.662Z,1608.75
2019-03-10T12:02:28.729Z,1451.25
2019-03-10T12:03:28.776Z,1434.38
2019-03-10T12:04:29.543Z,1524.38
2019-03-10T12:05:30.327Z,1597.5
2019-03-10T12:06:31.645Z,1563.75
2019-03-10T12:07:32.139Z,1636.88
2019-03-10T12:08:32.649Z,1771.88
2019-03-10T12:09:33.164Z,1040.63
2019-03-10T12:10:33.366Z,618.75
2019-03-10T12:11:33.855Z,506.25
2019-03-10T12:12:34.063Z,534.38
2019-03-10T12:13:34.303Z,658.13
2019-03-10T12:14:35.070Z,714.38
2019-03-10T12:15:36.115Z,1102.5
2019-03-10T12:16:36.624Z,1276.88
2019-03-10T12:17:36.839Z,1681.88
2019-03-10T12:18:37.879Z,1935
2019-03-10T12:19:38.746Z,1974.38
2019-03-10T12:20:39.301Z,1901.25
2019-03-10T12:21:39.836Z,2182.5
2019-03-10T12:22:41.789Z,2086.88
2019-03-10T12:23:41.554Z,2688.75
2019-03-10T12:24:42.044Z,2587.5
2019-03-10T12:25:43.637Z,2632.5
2019-03-10T12:26:44.205Z,2407.5
2019-03-10T12:27:45.046Z,2334.38
2019-03-10T12:28:44.729Z,1755
2019-03-10T12:29:45.501Z,2283.75
2019-03-10T12:30:46.824Z,1805.63
2019-03-10T12:31:46.613Z,669.38
2019-03-10T12:32:47.395Z,1254.38
2019-03-10T12:33:51.149Z,399.38
2019-03-10T12:34:50.189Z,247.5
2019-03-10T12:35:50.415Z,185.63
2019-03-10T12:36:52.260Z,163.13
2019-03-10T12:37:52.026Z,196.88
2019-03-10T12:38:52.495Z,315
2019-03-10T12:39:53.277Z,556.88
2019-03-10T12:40:54.063Z,601.88
2019-03-10T12:42:00.997Z,708.75
2019-03-10T12:42:04.950Z,714.38
2019-03-10T12:43:05.222Z,770.63
2019-03-10T12:44:05.704Z,860.63
2019-03-10T12:45:06.472Z,1113.75
2019-03-10T12:46:07.608Z,1057.5
2019-03-10T12:47:24.857Z,1046.25
2019-03-10T12:47:32.571Z,1125
2019-03-10T12:48:29.801Z,990
2019-03-10T12:49:30.291Z,855
2019-03-10T12:50:30.788Z,545.63
2019-03-10T12:51:32.105Z,1068.75
2019-03-10T12:52:32.883Z,1406.25
2019-03-10T12:53:33.642Z,1372.5
2019-03-10T12:54:34.412Z,855
2019-03-10T12:55:35.236Z,382.5
2019-03-10T12:56:36.004Z,264.38
2019-03-10T12:57:36.219Z,613.13
2019-03-10T12:58:37.181Z,1642.5
2019-03-10T12:59:37.671Z,1721.25
2019-03-10T13:00:38.722Z,1906.88
2019-03-10T13:01:40.321Z,1940.63
2019-03-10T13:02:40.663Z,1991.25
2019-03-10T13:03:43.291Z,1552.5
2019-03-10T13:04:42.297Z,1035
2019-03-10T13:05:43.339Z,2115
2019-03-10T13:06:44.663Z,2165.63
2019-03-10T13:07:45.980Z,2115
2019-03-10T13:08:46.784Z,1895.63
2019-03-10T13:09:46.566Z,1839.38
2019-03-10T13:10:47.349Z,1501.88
2019-03-10T13:11:48.392Z,1423.13
2019-03-10T13:12:49.168Z,1406.25
2019-03-10T13:13:49.438Z,1828.13
2019-03-10T13:15:02.515Z,2019.38
2019-03-10T13:16:01.036Z,1974.38
2019-03-10T13:17:01.264Z,376.88
2019-03-10T13:18:02.033Z,2126.25
2019-03-10T13:19:02.805Z,2115
2019-03-10T13:20:04.131Z,2120.63
2019-03-10T13:21:03.921Z,2131.88
2019-03-10T13:22:04.131Z,2092.5
2019-03-10T13:23:04.618Z,1946.25
2019-03-10T13:24:04.846Z,1580.63
2019-03-10T13:25:05.617Z,1783.13
2019-03-10T13:26:06.864Z,1940.63
2019-03-10T13:27:07.351Z,1400.63
2019-03-10T13:28:07.839Z,1541.25
2019-03-10T13:29:08.330Z,1951.88
2019-03-10T13:30:09.659Z,1901.25
2019-03-10T13:31:09.984Z,1254.38
2019-03-10T13:32:11.029Z,1906.88
2019-03-10T13:33:12.069Z,1411.88
2019-03-10T13:34:12.834Z,1721.25
2019-03-10T13:35:13.324Z,1665
2019-03-10T13:36:13.983Z,1732.5
2019-03-10T13:37:14.479Z,1749.38
2019-03-10T13:38:15.028Z,1282.5
2019-03-10T13:39:15.805Z,585